Time;durP1;ratioP1;P1;durP2;ratioP2;P2;SDS_P1;SDS_P2;PMS_P1;PMS_P2;Temp;Humidity;BMP_temperature;BMP_pressure;BME280_temperature;BME280_humidity;BME280_pressure;Samples;Min_cycle;Max_cycle;Signal;HPM_P1;HPM_P2
2021/10/27 00:00:11;;;;;;;11.53;5.57;;;6.40;99.90;6.20;101317.00;;;;4941892;28;83124;-68
2021/10/27 00:02:37;;;;;;;12.37;8.37;;;6.40;99.90;6.20;101316.00;;;;4940480;28;87424;-69
2021/10/27 00:05:05;;;;;;;18.13;11.00;;;6.40;99.90;6.10;101317.00;;;;4941387;28;82698;-69
2021/10/27 00:07:32;;;;;;;8.30;5.43;;;6.30;99.90;6.10;101306.00;;;;4940441;28;83530;-68
2021/10/27 00:09:58;;;;;;;8.50;5.30;;;6.40;99.90;6.00;101319.00;;;;4941381;28;85257;-68
2021/10/27 00:12:24;;;;;;;6.43;4.17;;;7.20;99.90;6.00;101315.00;;;;4940746;28;83821;-69
2021/10/27 00:14:50;;;;;;;5.23;3.77;;;6.20;99.90;6.00;101318.00;;;;4941550;28;102674;-69
2021/10/27 00:17:15;;;;;;;6.53;4.47;;;6.20;99.90;6.00;101313.00;;;;4940610;28;107604;-70
2021/10/27 00:19:41;;;;;;;5.87;4.67;;;6.10;99.90;5.90;101322.00;;;;4956018;28;82181;-69
2021/10/27 00:22:07;;;;;;;5.77;4.07;;;6.20;99.90;6.00;101314.00;;;;4939728;28;112352;-69
2021/10/27 00:24:32;;;;;;;8.43;4.90;;;6.10;99.90;6.00;101312.00;;;;4939019;28;82915;-68
2021/10/27 00:26:58;;;;;;;8.60;5.00;;;6.10;99.90;6.00;101325.00;;;;4939366;28;109236;-68
2021/10/27 00:29:24;;;;;;;11.33;5.97;;;6.20;99.90;6.10;101314.00;;;;4939753;28;113575;-70
2021/10/27 00:31:50;;;;;;;7.50;5.60;;;6.30;99.90;6.20;101312.00;;;;4954941;28;84017;-70
2021/10/27 00:34:16;;;;;;;9.17;5.53;;;6.30;99.90;6.30;101304.00;;;;4939622;28;109811;-70
2021/10/27 00:36:41;;;;;;;11.33;6.10;;;6.40;99.90;6.30;101307.00;;;;4940009;28;109373;-68
2021/10/27 00:39:07;;;;;;;7.50;6.13;;;6.50;99.90;6.40;101307.00;;;;4940604;28;82741;-68
2021/10/27 00:41:33;;;;;;;7.17;5.83;;;6.50;99.90;6.40;101306.00;;;;4940080;28;112241;-68
2021/10/27 00:43:58;;;;;;;5.77;5.10;;;6.50;99.90;6.50;101310.00;;;;4940365;28;110566;-68
2021/10/27 00:46:25;;;;;;;8.47;5.50;;;6.60;99.90;6.50;101312.00;;;;4939542;28;101514;-69
2021/10/27 00:48:52;;;;;;;7.23;5.57;;;6.70;99.90;6.50;101315.00;;;;4940247;28;82968;-69
2021/10/27 00:51:19;;;;;;;9.53;5.83;;;6.60;99.90;6.50;101310.00;;;;4940284;28;83748;-68
2021/10/27 00:53:47;;;;;;;5.83;4.97;;;6.70;99.90;6.50;101308.00;;;;4938472;28;83096;-68
2021/10/27 00:56:14;;;;;;;7.27;5.03;;;6.70;99.90;6.50;101308.00;;;;4941010;28;82697;-68
2021/10/27 00:58:40;;;;;;;5.40;4.90;;;6.60;99.90;6.50;101315.00;;;;4940246;28;83946;-69
2021/10/27 01:01:07;;;;;;;7.43;5.07;;;6.60;99.90;6.40;101306.00;;;;4941535;28;82908;-69
2021/10/27 01:03:35;;;;;;;14.77;4.77;;;6.60;99.90;6.40;101308.00;;;;4938123;28;82829;-68
2021/10/27 01:06:03;;;;;;;7.07;4.43;;;6.60;99.90;6.30;101306.00;;;;4940551;28;82681;-69
2021/10/27 01:08:29;;;;;;;7.67;5.03;;;6.50;99.90;6.20;101310.00;;;;4954941;28;82318;-68
2021/10/27 01:10:55;;;;;;;7.00;4.10;;;6.40;99.90;6.20;101304.00;;;;4954556;28;83149;-68
2021/10/27 01:13:20;;;;;;;4.73;4.23;;;6.30;99.90;6.10;101300.00;;;;4939433;28;109710;-68
2021/10/27 01:15:46;;;;;;;9.37;5.93;;;6.30;99.90;6.00;101299.00;;;;4939722;28;109591;-68
2021/10/27 01:18:12;;;;;;;9.30;5.27;;;6.30;99.90;6.00;101306.00;;;;4939341;28;111082;-69
2021/10/27 01:20:38;;;;;;;10.17;5.97;;;6.20;99.90;5.90;101299.00;;;;4940220;28;84378;-69
2021/10/27 01:23:03;;;;;;;8.77;5.03;;;6.10;99.90;5.90;101304.00;;;;4941089;28;82770;-69
2021/10/27 01:25:29;;;;;;;11.57;5.23;;;6.10;99.90;5.80;101300.00;;;;4939954;28;104770;-69
2021/10/27 01:27:56;;;;;;;7.40;5.00;;;6.00;99.90;5.70;101298.00;;;;4939086;28;107395;-69
2021/10/27 01:30:24;;;;;;;7.60;5.03;;;6.30;99.90;5.70;101303.00;;;;4940423;28;83691;-69
2021/10/27 01:32:51;;;;;;;8.87;4.90;;;5.90;99.90;5.60;101303.00;;;;4940638;28;81934;-69
2021/10/27 01:35:17;;;;;;;6.47;4.47;;;5.80;99.90;5.60;101314.00;;;;4939926;28;94429;-70
2021/10/27 01:37:44;;;;;;;9.97;4.47;;;5.80;99.90;5.50;101301.00;;;;4939803;28;85489;-69
2021/10/27 01:40:16;;;;;;;5.03;4.13;;;5.70;99.90;5.50;101306.00;;;;4939782;28;83745;-69
2021/10/27 01:42:42;;;;;;;5.67;4.33;;;5.70;99.90;5.40;101302.00;;;;4940219;28;85863;-69
2021/10/27 01:45:09;;;;;;;6.50;4.67;;;5.60;99.90;5.40;101307.00;;;;4939527;28;82649;-69
2021/10/27 01:47:36;;;;;;;6.20;4.93;;;5.60;99.90;5.40;101298.00;;;;4939487;28;83704;-69
2021/10/27 01:50:03;;;;;;;6.93;3.77;;;5.50;99.90;5.30;101300.00;;;;4920877;28;82776;-69
2021/10/27 01:52:28;;;;;;;5.23;3.90;;;5.50;99.90;5.30;101300.00;;;;4920515;28;83228;-69
2021/10/27 01:54:54;;;;;;;5.40;4.17;;;5.80;99.90;5.20;101289.00;;;;4939441;28;104647;-69
2021/10/27 01:57:20;;;;;;;4.97;3.73;;;5.40;99.90;5.20;101287.00;;;;4939435;28;111158;-69
2021/10/27 01:59:46;;;;;;;5.53;4.87;;;5.50;99.90;5.20;101280.00;;;;4939725;28;82965;-69
2021/10/27 02:02:12;;;;;;;12.73;3.97;;;5.40;99.90;5.20;101273.00;;;;4940094;28;82660;-69
2021/10/27 02:04:38;;;;;;;9.37;6.03;;;5.80;99.90;5.20;101262.00;;;;4938109;28;102133;-69
2021/10/27 02:07:04;;;;;;;7.03;5.30;;;5.50;99.90;5.30;101270.00;;;;4939869;28;83042;-69
2021/10/27 02:09:31;;;;;;;5.20;4.27;;;5.40;99.90;5.30;101267.00;;;;4939161;28;91399;-69
2021/10/27 02:11:57;;;;;;;13.80;4.77;;;5.50;99.90;5.40;101278.00;;;;4940033;28;82733;-69
2021/10/27 02:14:22;;;;;;;10.03;6.10;;;5.50;99.90;5.50;101278.00;;;;4939422;28;94486;-69
2021/10/27 02:16:48;;;;;;;10.33;4.90;;;5.60;99.90;5.60;101279.00;;;;4938756;28;112827;-69
2021/10/27 02:19:14;;;;;;;7.30;4.73;;;5.70;99.90;5.60;101280.00;;;;4939597;28;83354;-69
2021/10/27 02:21:40;;;;;;;7.57;4.87;;;5.70;99.90;5.70;101294.00;;;;4941326;28;82091;-69
2021/10/27 02:24:05;;;;;;;8.00;5.10;;;5.80;99.90;5.70;101290.00;;;;4942595;28;86274;-69
2021/10/27 02:26:31;;;;;;;6.00;4.67;;;5.80;99.90;5.80;101294.00;;;;4941565;28;113014;-70
2021/10/27 02:28:57;;;;;;;11.27;5.73;;;5.90;99.90;5.80;101293.00;;;;4956362;28;95400;-69
2021/10/27 02:31:23;;;;;;;5.63;5.00;;;5.90;99.90;5.80;101282.00;;;;4941970;28;110454;-69
2021/10/27 02:33:49;;;;;;;8.60;5.00;;;5.90;99.90;5.80;101287.00;;;;4942920;28;82934;-69
2021/10/27 02:36:15;;;;;;;7.63;5.30;;;6.00;99.90;5.90;101289.00;;;;4942198;28;111869;-69
2021/10/27 02:38:42;;;;;;;9.67;5.03;;;6.10;99.90;6.00;101300.00;;;;4942438;28;112422;-69
2021/10/27 02:41:09;;;;;;;9.30;4.93;;;6.10;99.90;6.10;101295.00;;;;4943002;28;83168;-70
2021/10/27 02:43:35;;;;;;;6.67;4.50;;;6.20;99.90;6.10;101287.00;;;;4942716;28;82656;-68
2021/10/27 02:46:01;;;;;;;5.63;4.83;;;6.20;99.90;6.10;101287.00;;;;4958171;28;82453;-69
2021/10/27 02:48:27;;;;;;;4.13;3.57;;;6.30;99.90;6.10;101298.00;;;;4941519;28;111814;-69
2021/10/27 02:50:53;;;;;;;9.43;5.00;;;6.30;99.90;6.10;101282.00;;;;4942267;28;107793;-69
2021/10/27 02:53:18;;;;;;;9.50;4.80;;;6.30;99.90;6.20;101283.00;;;;4942258;28;83521;-68
2021/10/27 02:55:44;;;;;;;7.83;4.60;;;6.30;99.90;6.20;101285.00;;;;4956252;28;112154;-68
2021/10/27 02:58:10;;;;;;;7.10;4.87;;;6.30;99.90;6.30;101299.00;;;;4941796;28;112386;-68
2021/10/27 03:00:35;;;;;;;8.37;4.80;;;6.40;99.90;6.30;101290.00;;;;4957434;28;110542;-67
2021/10/27 03:03:02;;;;;;;6.83;4.53;;;6.40;99.90;6.30;101289.00;;;;4941215;28;108862;-68
2021/10/27 03:05:28;;;;;;;9.10;4.70;;;6.40;99.90;6.40;101300.00;;;;4956615;28;82866;-68
2021/10/27 03:07:54;;;;;;;6.77;4.60;;;6.60;99.90;6.50;101296.00;;;;4942482;28;82822;-68
2021/10/27 03:10:20;;;;;;;6.10;4.37;;;6.60;99.90;6.60;101299.00;;;;4942609;28;81911;-69
2021/10/27 03:12:46;;;;;;;7.13;5.33;;;6.60;99.90;6.70;101291.00;;;;4957452;28;97798;-67
2021/10/27 03:15:11;;;;;;;6.00;4.80;;;6.70;99.90;6.80;101295.00;;;;4941967;28;83086;-67
2021/10/27 03:17:38;;;;;;;9.27;4.37;;;6.90;99.90;7.00;101306.00;;;;4941633;28;111947;-67
2021/10/27 03:20:05;;;;;;;5.83;4.50;;;6.90;99.90;7.00;101301.00;;;;4941509;28;107717;-67
2021/10/27 03:22:31;;;;;;;7.33;5.40;;;7.10;99.90;7.10;101307.00;;;;4941750;28;83067;-67
2021/10/27 03:24:56;;;;;;;9.77;4.70;;;7.10;99.90;7.10;101318.00;;;;4956550;28;82690;-67
2021/10/27 03:27:22;;;;;;;6.97;4.60;;;7.20;99.90;7.20;101317.00;;;;4940890;28;112042;-67
2021/10/27 03:29:48;;;;;;;7.97;5.47;;;7.30;99.90;7.20;101317.00;;;;4941462;28;91197;-67
2021/10/27 03:32:13;;;;;;;5.20;4.30;;;7.30;99.90;7.30;101312.00;;;;4940334;28;108750;-68
2021/10/27 03:34:39;;;;;;;9.90;5.27;;;7.30;99.90;7.30;101306.00;;;;4940133;28;112008;-68
2021/10/27 03:37:07;;;;;;;7.80;5.20;;;7.40;99.90;7.40;101307.00;;;;4956121;28;82892;-68
2021/10/27 03:39:33;;;;;;;6.00;4.67;;;7.40;99.90;7.40;101309.00;;;;4941613;28;82763;-67
2021/10/27 03:41:59;;;;;;;10.70;5.03;;;7.50;99.90;7.50;101308.00;;;;4941407;28;83824;-68
2021/10/27 03:44:25;;;;;;;9.53;5.10;;;7.50;99.90;7.50;101305.00;;;;4941606;28;83339;-68
2021/10/27 03:46:51;;;;;;;6.80;4.80;;;7.50;99.90;7.50;101307.00;;;;4941604;28;86741;-68
2021/10/27 03:49:18;;;;;;;7.50;4.70;;;7.60;99.90;7.60;101312.00;;;;4941512;28;82826;-68
2021/10/27 03:51:44;;;;;;;6.57;4.53;;;7.70;99.90;7.60;101322.00;;;;4941515;28;82727;-69
2021/10/27 03:54:10;;;;;;;5.90;5.20;;;7.70;99.90;7.60;101317.00;;;;4956366;28;82846;-68
2021/10/27 03:56:36;;;;;;;5.53;3.97;;;7.70;99.90;7.70;101319.00;;;;4941198;28;112061;-69
2021/10/27 03:59:02;;;;;;;6.73;3.97;;;7.70;99.90;7.70;101321.00;;;;4941267;28;109031;-69
2021/10/27 04:01:27;;;;;;;7.87;5.07;;;7.70;99.90;7.70;101327.00;;;;4954539;28;111271;-68
2021/10/27 04:03:53;;;;;;;6.70;4.47;;;7.80;99.90;7.70;101330.00;;;;4940747;28;110035;-69
2021/10/27 04:06:19;;;;;;;11.87;4.83;;;7.70;99.90;7.70;101329.00;;;;4939349;28;113529;-70
2021/10/27 04:08:45;;;;;;;6.87;4.90;;;7.80;99.90;7.70;101328.00;;;;4940095;28;109911;-69
2021/10/27 04:11:10;;;;;;;6.30;4.20;;;7.80;99.90;7.70;101334.00;;;;4940428;28;108533;-69
2021/10/27 04:13:37;;;;;;;6.93;4.27;;;7.80;99.90;7.70;101329.00;;;;4954535;28;113542;-69
2021/10/27 04:16:03;;;;;;;7.60;4.47;;;7.80;99.90;7.70;101327.00;;;;4941461;28;83696;-68
2021/10/27 04:18:28;;;;;;;6.70;4.63;;;7.80;99.90;7.70;101336.00;;;;4940581;28;91041;-68
2021/10/27 04:20:54;;;;;;;6.27;4.43;;;7.90;99.90;7.70;101331.00;;;;4940272;28;108349;-70
2021/10/27 04:23:20;;;;;;;6.47;4.23;;;7.80;99.90;7.70;101330.00;;;;4954957;28;111529;-67
2021/10/27 04:25:45;;;;;;;6.93;4.80;;;7.80;99.90;7.80;101332.00;;;;4940518;28;110248;-68
2021/10/27 04:28:11;;;;;;;9.87;5.30;;;7.90;99.90;7.90;101334.00;;;;4939997;28;109489;-67
2021/10/27 04:30:37;;;;;;;10.80;5.90;;;7.90;99.90;7.90;101339.00;;;;4954341;28;108281;-68
2021/10/27 04:33:02;;;;;;;7.87;5.03;;;7.90;99.90;7.90;101335.00;;;;4939555;28;108781;-67
2021/10/27 04:35:29;;;;;;;7.07;4.53;;;7.90;99.90;8.00;101335.00;;;;4940204;28;111956;-67
2021/10/27 04:37:56;;;;;;;6.60;4.40;;;8.30;99.90;8.00;101333.00;;;;4941009;28;82602;-68
2021/10/27 04:40:23;;;;;;;4.17;3.47;;;8.00;99.90;8.00;101338.00;;;;4934598;28;91544;-68
2021/10/27 04:42:48;;;;;;;7.23;4.50;;;8.00;99.90;8.00;101339.00;;;;4923020;28;86192;-68
2021/10/27 04:45:15;;;;;;;5.37;4.50;;;8.10;99.90;8.00;101341.00;;;;4936283;28;83881;-68
2021/10/27 04:47:42;;;;;;;5.90;4.30;;;8.10;99.90;8.10;101338.00;;;;4937631;28;82126;-68
2021/10/27 04:50:09;;;;;;;5.83;4.80;;;8.10;99.90;8.10;101338.00;;;;4937307;28;82761;-69
2021/10/27 04:52:35;;;;;;;6.47;4.23;;;8.10;99.90;8.10;101336.00;;;;4936891;28;83237;-69
2021/10/27 04:55:01;;;;;;;7.33;4.77;;;8.20;99.90;8.10;101337.00;;;;4951295;28;83679;-68
2021/10/27 04:57:27;;;;;;;5.60;4.47;;;8.20;99.90;8.10;101335.00;;;;4936741;28;82933;-69
2021/10/27 04:59:53;;;;;;;5.50;4.23;;;8.20;99.90;8.10;101333.00;;;;4939681;28;110348;-68
2021/10/27 05:02:18;;;;;;;10.00;4.53;;;8.20;99.90;8.00;101338.00;;;;4940081;28;83787;-68
2021/10/27 05:04:46;;;;;;;10.83;4.33;;;8.20;99.90;8.00;101333.00;;;;4939782;28;114037;-68
2021/10/27 05:07:15;;;;;;;8.63;4.73;;;8.10;99.90;8.10;101329.00;;;;4955042;28;82715;-68
2021/10/27 05:09:42;;;;;;;10.60;4.47;;;8.10;99.90;8.10;101341.00;;;;4940600;28;82645;-68
2021/10/27 05:12:09;;;;;;;7.03;4.90;;;8.10;99.90;8.10;101329.00;;;;4940355;28;82484;-67
2021/10/27 05:14:37;;;;;;;6.73;4.27;;;8.70;99.90;8.10;101329.00;;;;4940414;28;83173;-68
2021/10/27 05:17:09;;;;;;;7.13;4.70;;;8.10;99.90;8.10;101333.00;;;;4955576;28;83113;-68
2021/10/27 05:19:35;;;;;;;6.50;5.30;;;8.20;99.90;8.10;101333.00;;;;4939797;28;83594;-68
2021/10/27 05:22:01;;;;;;;9.20;5.67;;;8.30;99.90;8.20;101332.00;;;;4940630;28;83774;-68
2021/10/27 05:24:27;;;;;;;11.33;4.87;;;8.20;99.90;8.20;101323.00;;;;4939593;28;98963;-68
2021/10/27 05:26:52;;;;;;;8.37;3.97;;;8.30;99.90;8.20;101338.00;;;;4940236;28;82676;-68
2021/10/27 05:29:18;;;;;;;6.80;4.80;;;8.30;99.90;8.30;101336.00;;;;4938197;28;95665;-67
2021/10/27 05:31:44;;;;;;;5.07;4.10;;;8.30;99.90;8.30;101343.00;;;;4940028;28;83065;-68
2021/10/27 05:34:10;;;;;;;7.63;5.63;;;8.30;99.90;8.30;101346.00;;;;4940055;28;82746;-68
2021/10/27 05:36:38;;;;;;;5.13;4.47;;;8.40;99.90;8.40;101346.00;;;;4939593;28;109284;-70
2021/10/27 05:39:04;;;;;;;8.20;4.43;;;8.40;99.90;8.40;101358.00;;;;4954440;28;82757;-68
2021/10/27 05:41:31;;;;;;;5.30;4.27;;;8.50;99.90;8.50;101361.00;;;;4939617;28;110781;-69
2021/10/27 05:43:57;;;;;;;8.50;4.77;;;8.50;99.90;8.60;101361.00;;;;4939560;28;84207;-68
2021/10/27 05:46:23;;;;;;;4.77;3.90;;;8.60;99.90;8.60;101357.00;;;;4939778;28;82707;-68
2021/10/27 05:48:58;;;;;;;6.13;4.43;;;8.70;99.90;8.70;101347.00;;;;4940554;28;82741;-68
2021/10/27 05:51:36;;;;;;;4.67;3.70;;;8.70;99.90;8.80;101346.00;;;;4940342;28;82913;-69
2021/10/27 05:56:46;;;;;;;9.30;4.30;;;8.80;99.90;8.80;101360.00;;;;4940709;28;82369;-68
2021/10/27 05:59:12;;;;;;;5.00;3.97;;;8.80;99.90;8.80;101363.00;;;;4942186;28;108717;-68
2021/10/27 06:01:38;;;;;;;9.20;4.87;;;8.90;99.90;8.90;101351.00;;;;4942465;28;108747;-67
2021/10/27 06:04:03;;;;;;;5.30;4.10;;;8.90;99.90;8.90;101359.00;;;;4942700;28;112023;-68
2021/10/27 06:06:29;;;;;;;9.43;4.17;;;8.90;99.90;8.90;101358.00;;;;4942317;28;102511;-68
2021/10/27 06:08:57;;;;;;;12.30;4.93;;;9.00;99.90;8.90;101357.00;;;;4942005;28;107389;-68
2021/10/27 06:11:22;;;;;;;6.50;4.57;;;9.00;99.90;8.90;101361.00;;;;4943080;28;83136;-67
2021/10/27 06:13:48;;;;;;;8.43;4.33;;;9.00;99.90;8.90;101372.00;;;;4942122;28;111747;-68
2021/10/27 06:16:14;;;;;;;8.23;5.03;;;9.00;99.90;8.90;101379.00;;;;4957299;28;110026;-67
2021/10/27 06:18:41;;;;;;;6.73;3.70;;;9.00;99.90;9.00;101377.00;;;;4942761;28;82899;-68
2021/10/27 06:21:09;;;;;;;5.67;4.00;;;9.00;99.90;9.00;101390.00;;;;4943933;28;83498;-67
2021/10/27 06:23:36;;;;;;;4.83;3.37;;;9.00;99.90;9.00;101391.00;;;;4942754;28;83176;-66
2021/10/27 06:26:03;;;;;;;6.17;4.50;;;9.10;99.90;9.00;101389.00;;;;4958053;28;81936;-67
2021/10/27 06:28:31;;;;;;;7.87;4.60;;;9.10;99.90;9.10;101394.00;;;;4942360;28;84289;-67
2021/10/27 06:31:23;;;;;;;6.23;3.80;;;9.10;99.90;9.10;101393.00;;;;4943246;28;83093;-68
2021/10/27 06:34:02;;;;;;;5.73;3.93;;;9.10;99.90;9.10;101398.00;;;;4941552;28;83805;-68
2021/10/27 06:36:37;;;;;;;8.83;4.23;;;9.20;99.90;9.20;101398.00;;;;4957123;28;83123;-67
2021/10/27 06:47:16;;;;;;;4.67;3.10;;;9.60;99.90;9.90;101407.00;;;;4941092;28;82718;-68
2021/10/27 06:49:42;;;;;;;4.87;3.20;;;9.80;99.90;10.00;101397.00;;;;4939853;28;87895;-68
2021/10/27 06:52:08;;;;;;;6.63;3.87;;;10.00;99.90;10.10;101397.00;;;;4938409;28;87257;-68
2021/10/27 06:54:33;;;;;;;4.33;3.33;;;10.00;99.90;10.20;101402.00;;;;4938338;28;88011;-68
2021/10/27 06:56:59;;;;;;;5.17;3.23;;;10.20;99.90;10.30;101409.00;;;;4939165;28;110542;-68
2021/10/27 07:04:43;;;;;;;4.23;2.73;;;10.50;99.90;10.70;101422.00;;;;4939558;28;88086;-68
2021/10/27 07:15:35;;;;;;;5.03;3.17;;;11.10;99.90;11.30;101436.00;;;;4936984;28;87727;-68
2021/10/27 07:18:02;;;;;;;3.97;2.80;;;11.30;99.90;11.40;101438.00;;;;4940041;28;87119;-68
2021/10/27 07:20:28;;;;;;;3.57;2.87;;;11.40;99.90;11.50;101455.00;;;;4939962;28;87801;-67
2021/10/27 07:23:00;;;;;;;5.80;2.97;;;11.50;99.90;11.70;101441.00;;;;4938861;28;88693;-67
2021/10/27 07:25:27;;;;;;;4.43;2.87;;;11.60;99.90;11.70;101445.00;;;;4939339;28;88739;-67
2021/10/27 07:27:52;;;;;;;3.83;2.67;;;11.70;99.90;11.80;101454.00;;;;4939746;28;87991;-67
2021/10/27 07:30:18;;;;;;;4.70;3.13;;;11.80;99.90;11.90;101449.00;;;;4939928;28;87764;-67
2021/10/27 07:32:44;;;;;;;3.13;2.50;;;11.90;99.90;12.00;101455.00;;;;4937639;28;89060;-67
2021/10/27 07:40:33;;;;;;;2.47;2.17;;;12.00;99.90;12.00;101467.00;;;;4937034;28;87765;-67
2021/10/27 07:43:15;;;;;;;4.93;3.00;;;12.00;99.90;12.10;101469.00;;;;4953631;28;89808;-66
2021/10/27 07:45:42;;;;;;;5.17;3.07;;;12.10;99.90;12.20;101462.00;;;;4939295;28;87697;-67
2021/10/27 07:48:08;;;;;;;4.70;2.50;;;12.20;99.90;12.30;101452.00;;;;4953173;28;87617;-67
2021/10/27 07:50:36;;;;;;;4.30;2.70;;;12.30;99.90;12.50;101451.00;;;;4939247;28;88655;-67
2021/10/27 07:53:06;;;;;;;4.33;2.60;;;12.40;99.90;12.60;101459.00;;;;4938772;28;88524;-67
2021/10/27 07:55:33;;;;;;;3.73;2.53;;;12.60;99.90;12.70;101459.00;;;;4939366;28;88774;-67
2021/10/27 07:58:01;;;;;;;3.33;2.57;;;12.70;99.90;12.90;101450.00;;;;4938996;28;88009;-66
2021/10/27 08:00:29;;;;;;;3.40;2.40;;;12.80;99.90;13.00;101453.00;;;;4939542;28;87977;-67
2021/10/27 08:03:00;;;;;;;4.27;2.23;;;13.00;99.90;13.10;101456.00;;;;4938954;28;88044;-66
2021/10/27 08:05:27;;;;;;;3.03;2.27;;;13.10;99.90;13.10;101445.00;;;;4939074;28;87700;-66
2021/10/27 08:07:53;;;;;;;4.73;2.10;;;13.10;99.90;13.20;101460.00;;;;4938781;28;97376;-67
2021/10/27 08:10:19;;;;;;;4.37;2.43;;;13.10;99.90;13.20;101464.00;;;;4938365;28;108624;-67
2021/10/27 08:12:47;;;;;;;2.87;2.20;;;13.20;99.90;13.40;101455.00;;;;4938799;28;88659;-66
2021/10/27 08:15:13;;;;;;;2.30;2.00;;;13.30;99.90;13.60;101451.00;;;;4938155;28;88731;-67
2021/10/27 08:17:40;;;;;;;2.50;2.03;;;13.50;99.90;13.80;101459.00;;;;4938941;28;87825;-67
2021/10/27 08:20:09;;;;;;;5.17;2.47;;;13.70;99.90;13.80;101458.00;;;;4938696;28;87917;-67
2021/10/27 08:22:35;;;;;;;3.37;2.33;;;13.80;99.90;13.80;101463.00;;;;4938295;28;88473;-68
2021/10/27 08:25:07;;;;;;;3.67;2.33;;;13.80;99.90;13.80;101451.00;;;;4936469;28;90044;-67
2021/10/27 08:27:36;;;;;;;2.23;1.93;;;13.70;99.90;13.70;101462.00;;;;4939670;28;87890;-67
2021/10/27 08:30:08;;;;;;;5.80;2.20;;;13.70;99.90;13.70;101467.00;;;;4938952;28;87695;-67
2021/10/27 08:35:14;;;;;;;2.97;2.20;;;13.60;99.90;13.50;101462.00;;;;4938099;28;87807;-66
2021/10/27 08:37:48;;;;;;;2.30;2.10;;;13.50;99.90;13.50;101465.00;;;;4938299;28;87908;-67
2021/10/27 08:40:22;;;;;;;3.97;2.67;;;13.50;99.90;13.40;101461.00;;;;4938870;28;89262;-67
2021/10/27 08:42:49;;;;;;;2.87;1.80;;;13.40;99.90;13.40;101464.00;;;;4938445;28;88835;-67
2021/10/27 08:45:15;;;;;;;2.63;2.10;;;13.40;99.90;13.40;101459.00;;;;4938577;28;88182;-68
2021/10/27 08:47:41;;;;;;;2.10;1.67;;;13.30;99.90;13.30;101460.00;;;;4938388;28;87918;-67
2021/10/27 08:50:11;;;;;;;2.67;1.70;;;13.30;99.90;13.30;101461.00;;;;4953020;28;87624;-67
2021/10/27 08:52:41;;;;;;;3.03;1.60;;;13.30;99.90;13.30;101482.00;;;;4952328;28;87714;-68
2021/10/27 08:55:10;;;;;;;3.93;2.20;;;13.30;99.90;13.30;101473.00;;;;4937599;28;96280;-67
2021/10/27 08:57:36;;;;;;;4.50;1.90;;;13.30;99.90;13.30;101470.00;;;;4939054;28;87079;-67
2021/10/27 09:00:11;;;;;;;2.30;1.53;;;13.30;99.90;13.30;101457.00;;;;4938389;28;87717;-67
2021/10/27 09:08:36;;;;;;;5.80;1.70;;;13.20;99.90;13.30;101474.00;;;;4936916;28;88072;-67
2021/10/27 09:15:00;;;;;;;2.63;2.37;;;13.30;99.90;13.30;101479.00;;;;4935938;28;87950;-67
2021/10/27 09:33:37;;;;;;;3.43;2.17;;;13.30;99.90;13.30;101465.00;;;;4937178;28;87848;-67
2021/10/27 09:34:57;;;;;;;4.27;2.00;;;13.10;99.90;13.10;101462.00;;;;4914886;28;88987;-67
2021/10/27 09:43:14;;;;;;;3.77;1.90;;;13.10;99.90;13.20;101463.00;;;;4936155;28;87819;-68
2021/10/27 10:05:22;;;;;;;1.37;1.27;;;13.50;99.90;13.60;101473.00;;;;4935478;28;87738;-67
2021/10/27 10:07:50;;;;;;;2.37;1.80;;;13.50;99.90;13.60;101469.00;;;;4951301;28;108474;-66
2021/10/27 10:10:16;;;;;;;3.23;1.93;;;13.50;99.90;13.60;101477.00;;;;4937481;28;88869;-66
2021/10/27 10:12:53;;;;;;;2.93;1.87;;;13.60;99.90;13.60;101476.00;;;;4936896;28;88875;-67
2021/10/27 10:15:38;;;;;;;2.73;1.80;;;13.60;99.90;13.60;101479.00;;;;4935300;28;87734;-67
2021/10/27 10:18:05;;;;;;;1.63;1.53;;;13.60;99.90;13.70;101480.00;;;;4917891;28;87655;-67
2021/10/27 10:20:32;;;;;;;1.00;1.00;;;13.60;99.90;13.70;101488.00;;;;4916959;28;86926;-67
2021/10/27 10:23:22;;;;;;;1.83;1.50;;;13.60;99.90;13.70;101490.00;;;;4917247;28;95242;-67
2021/10/27 10:26:06;;;;;;;7.07;2.57;;;13.60;99.90;13.70;101486.00;;;;4930796;28;88113;-67
2021/10/27 10:28:43;;;;;;;3.23;1.33;;;13.60;99.90;13.70;101484.00;;;;4937482;28;88689;-67
2021/10/27 10:31:10;;;;;;;2.17;1.67;;;13.60;99.90;13.70;101486.00;;;;4937801;28;88295;-67
2021/10/27 10:33:42;;;;;;;1.53;1.23;;;13.70;99.90;13.70;101493.00;;;;4951034;28;87842;-67
2021/10/27 10:36:20;;;;;;;3.03;1.43;;;13.70;99.90;13.70;101494.00;;;;4937582;28;87792;-67
2021/10/27 10:41:51;;;;;;;3.87;2.27;;;13.80;99.90;13.80;101494.00;;;;4934468;28;88153;-67
2021/10/27 11:25:26;;;;;;;3.07;2.00;;;14.10;99.90;14.20;101503.00;;;;4938864;28;88740;-66
2021/10/27 11:41:35;;;;;;;2.67;1.40;;;14.20;99.90;14.30;101483.00;;;;4936971;28;87824;-67
2021/10/27 11:44:25;;;;;;;2.03;1.50;;;14.20;99.90;14.30;101486.00;;;;4954633;28;87281;-67
2021/10/27 11:46:58;;;;;;;2.40;1.47;;;14.30;99.90;14.30;101488.00;;;;4951100;28;87992;-68
2021/10/27 11:49:39;;;;;;;1.80;1.47;;;14.30;99.90;14.40;101486.00;;;;4952601;28;88010;-67
2021/10/27 11:52:06;;;;;;;1.53;1.30;;;14.30;99.90;14.40;101489.00;;;;4938451;28;88746;-67
2021/10/27 11:54:34;;;;;;;1.93;1.30;;;14.30;99.90;14.40;101483.00;;;;4939361;28;87767;-67
2021/10/27 11:57:02;;;;;;;2.07;1.50;;;14.30;99.90;14.40;101479.00;;;;4939192;28;87979;-69
2021/10/27 11:59:48;;;;;;;2.73;1.43;;;14.40;99.90;14.40;101488.00;;;;4953545;28;88335;-68
2021/10/27 12:02:16;;;;;;;4.80;1.10;;;14.40;99.90;14.50;101477.00;;;;4936571;28;88690;-66
2021/10/27 12:04:42;;;;;;;1.47;1.10;;;14.40;99.90;14.50;101479.00;;;;4938900;28;88123;-66
2021/10/27 12:07:31;;;;;;;1.43;1.17;;;14.40;99.90;14.50;101479.00;;;;4939307;28;87719;-66
2021/10/27 12:10:05;;;;;;;1.70;1.07;;;14.40;99.90;14.50;101475.00;;;;4938781;28;86979;-67
2021/10/27 12:18:33;;;;;;;1.23;0.90;;;14.50;99.90;14.60;101465.00;;;;4884434;28;88973;-66
2021/10/27 12:21:02;;;;;;;1.33;1.17;;;14.50;99.90;14.60;101460.00;;;;4943978;28;87969;-67
2021/10/27 12:23:29;;;;;;;2.73;1.50;;;14.50;99.90;14.60;101461.00;;;;4937999;28;87991;-66
2021/10/27 12:26:16;;;;;;;2.27;1.47;;;14.50;99.90;14.60;101452.00;;;;4939905;28;87688;-67
2021/10/27 12:28:42;;;;;;;2.83;1.13;;;14.50;99.90;14.60;101453.00;;;;4937916;28;87558;-67
2021/10/27 12:31:23;;;;;;;1.77;0.83;;;14.50;99.90;14.60;101457.00;;;;4939260;28;88472;-66
2021/10/27 12:33:51;;;;;;;0.90;0.90;;;14.50;99.90;14.60;101448.00;;;;4938523;28;87919;-67
2021/10/27 12:36:33;;;;;;;1.83;0.90;;;14.50;99.90;14.60;101459.00;;;;4939053;28;86877;-67
2021/10/27 12:42:06;;;;;;;1.40;1.00;;;14.50;99.90;14.60;101461.00;;;;4950335;28;88022;-67
2021/10/27 12:44:43;;;;;;;2.50;1.30;;;14.50;99.90;14.70;101459.00;;;;4935875;28;88814;-67
2021/10/27 12:47:21;;;;;;;1.47;1.07;;;14.60;99.90;14.70;101452.00;;;;4938470;28;88159;-67
2021/10/27 12:50:02;;;;;;;1.23;0.73;;;14.60;99.90;14.70;101453.00;;;;4938218;28;87670;-67
2021/10/27 12:52:53;;;;;;;2.30;1.23;;;14.60;99.90;14.70;101458.00;;;;4937981;28;88505;-67
2021/10/27 12:55:32;;;;;;;3.43;1.30;;;14.60;99.90;14.80;101453.00;;;;4929484;28;88025;-67
2021/10/27 12:58:17;;;;;;;1.77;0.90;;;14.70;99.90;14.80;101458.00;;;;4938004;28;87761;-67
2021/10/27 13:06:04;;;;;;;3.27;1.30;;;14.80;99.90;14.90;101452.00;;;;4935080;28;87874;-66
2021/10/27 13:13:49;;;;;;;1.00;0.90;;;14.80;99.90;14.90;101446.00;;;;4937316;28;87781;-67
2021/10/27 13:17:07;;;;;;;2.40;0.80;;;14.80;99.90;14.90;101445.00;;;;4938371;28;88556;-68
2021/10/27 13:30:06;;;;;;;1.20;0.70;;;14.90;99.90;15.00;101457.00;;;;4937675;28;86899;-67
2021/10/27 13:32:37;;;;;;;1.60;1.23;;;14.90;99.90;15.00;101451.00;;;;4937823;28;87961;-67
2021/10/27 13:35:04;;;;;;;0.98;0.68;;;14.90;99.90;15.00;101451.00;;;;4937479;28;87866;-66
2021/10/27 13:37:31;;;;;;;1.17;0.82;;;14.90;99.90;15.10;101454.00;;;;4937169;28;88823;-68
2021/10/27 13:39:58;;;;;;;1.53;0.73;;;14.90;99.90;15.10;101443.00;;;;4937478;28;88077;-67
2021/10/27 13:42:30;;;;;;;4.72;0.80;;;15.00;99.90;15.10;101449.00;;;;4938060;28;87956;-68
2021/10/27 13:45:12;;;;;;;6.47;1.00;;;15.00;99.90;15.10;101448.00;;;;4937526;28;88254;-67
2021/10/27 14:06:20;;;;;;;1.48;0.75;;;15.10;99.90;15.20;101450.00;;;;4947832;28;87921;-67
2021/10/27 14:11:31;;;;;;;1.55;0.98;;;15.30;99.90;15.20;101441.00;;;;4933925;28;87532;-67